createdAt,value
2023-04-17T00:01:21.052Z,13.07
2023-04-17T00:03:24.079Z,12.52
2023-04-17T00:05:27.924Z,13.20
2023-04-17T00:07:34.337Z,12.65
2023-04-17T00:09:37.062Z,13.65
2023-04-17T00:11:40.185Z,12.65
2023-04-17T00:13:44.017Z,13.13
2023-04-17T00:15:46.698Z,13.02
2023-04-17T00:17:49.483Z,12.55
2023-04-17T00:19:52.318Z,13.18
2023-04-17T00:21:55.048Z,12.68
2023-04-17T00:23:59.453Z,12.27
2023-04-17T00:26:02.626Z,13.30
2023-04-17T00:28:05.915Z,13.82
2023-04-17T00:30:09.841Z,13.15
2023-04-17T00:32:12.549Z,13.40
2023-04-17T00:34:15.244Z,11.80
2023-04-17T00:36:17.972Z,12.95
2023-04-17T00:38:20.690Z,14.15
2023-04-17T00:40:24.658Z,14.50
2023-04-17T00:42:27.505Z,13.30
2023-04-17T00:44:30.702Z,12.65
2023-04-17T00:46:33.709Z,13.27
2023-04-17T00:48:38.431Z,12.68
2023-04-17T00:50:41.647Z,12.30
2023-04-17T00:52:46.057Z,12.88
2023-04-17T00:54:48.702Z,13.43
2023-04-17T00:56:55.178Z,13.23
2023-04-17T00:58:58.742Z,12.95
2023-04-17T01:01:01.466Z,12.70
2023-04-17T01:03:07.328Z,15.00
2023-04-17T01:05:10.671Z,14.02
2023-04-17T01:07:13.366Z,12.40
2023-04-17T01:09:19.009Z,12.32
2023-04-17T01:11:22.095Z,13.15
2023-04-17T01:13:26.340Z,13.00
2023-04-17T01:15:29.379Z,13.20
2023-04-17T01:17:32.195Z,12.82
2023-04-17T01:19:34.989Z,12.85
2023-04-17T01:21:37.692Z,12.60
2023-04-17T01:23:45.417Z,12.73
2023-04-17T01:25:51.184Z,12.65
2023-04-17T01:27:53.965Z,12.10
2023-04-17T01:29:56.575Z,11.55
2023-04-17T01:31:59.190Z,12.45
2023-04-17T01:34:04.923Z,12.70
2023-04-17T01:36:07.993Z,12.77
2023-04-17T01:38:10.633Z,13.50
2023-04-17T01:40:13.884Z,13.80
2023-04-17T01:42:17.921Z,13.75
2023-04-17T01:44:20.706Z,13.48
2023-04-17T01:46:23.462Z,13.60
2023-04-17T01:48:26.125Z,13.05
2023-04-17T01:50:28.786Z,13.43
2023-04-17T01:52:31.623Z,13.80
2023-04-17T01:54:34.294Z,13.05
2023-04-17T01:56:36.890Z,12.32
2023-04-17T01:58:41.010Z,12.23
2023-04-17T02:00:43.708Z,12.55
2023-04-17T02:02:46.485Z,13.27
2023-04-17T02:04:49.260Z,13.65
2023-04-17T02:06:52.253Z,12.52
2023-04-17T02:08:54.918Z,12.93
2023-04-17T02:10:57.602Z,13.40
2023-04-17T02:13:00.290Z,13.25
2023-04-17T02:15:04.346Z,13.20
2023-04-17T02:17:07.186Z,13.02
2023-04-17T02:19:10.065Z,13.15
2023-04-17T02:21:12.959Z,13.90
2023-04-17T02:23:15.690Z,13.45
2023-04-17T02:25:18.481Z,13.27
2023-04-17T02:27:21.262Z,13.27
2023-04-17T02:29:23.896Z,13.80
2023-04-17T02:31:27.936Z,13.70
2023-04-17T02:33:30.673Z,13.90
2023-04-17T02:35:34.115Z,13.50
2023-04-17T02:37:37.181Z,14.60
2023-04-17T02:39:39.798Z,13.27
2023-04-17T02:41:42.512Z,12.32
2023-04-17T02:43:45.230Z,13.75
2023-04-17T02:45:47.973Z,13.40
2023-04-17T02:47:52.064Z,14.13
2023-04-17T02:49:56.174Z,13.27
2023-04-17T02:51:58.976Z,14.52
2023-04-17T02:54:01.669Z,14.07
2023-04-17T02:56:05.098Z,13.85
2023-04-17T02:58:07.795Z,13.32
2023-04-17T03:00:13.938Z,13.98
2023-04-17T03:02:21.814Z,14.25
2023-04-17T03:04:27.631Z,13.27
2023-04-17T03:06:30.239Z,15.30
2023-04-17T03:08:35.457Z,13.48
2023-04-17T03:10:38.101Z,13.77
2023-04-17T03:12:40.810Z,13.75
2023-04-17T03:14:44.700Z,13.65
2023-04-17T03:16:47.371Z,13.43
2023-04-17T03:18:50.041Z,14.63
2023-04-17T03:20:54.143Z,13.32
2023-04-17T03:22:56.832Z,13.18
2023-04-17T03:24:59.481Z,13.82
2023-04-17T03:27:02.949Z,13.02
2023-04-17T03:29:06.043Z,13.60
2023-04-17T03:31:08.710Z,14.27
2023-04-17T03:33:11.423Z,12.93
2023-04-17T03:35:14.269Z,14.20
2023-04-17T03:37:18.315Z,16.08
2023-04-17T03:39:21.476Z,14.55
2023-04-17T03:41:24.291Z,14.68
2023-04-17T03:43:27.074Z,13.98
2023-04-17T03:45:29.690Z,15.63
2023-04-17T03:47:32.403Z,14.15
2023-04-17T03:49:35.055Z,14.65
2023-04-17T03:51:37.728Z,14.15
2023-04-17T03:53:41.852Z,14.73
2023-04-17T03:55:44.571Z,14.50
2023-04-17T03:57:48.521Z,14.65
2023-04-17T03:59:51.313Z,14.68
2023-04-17T04:01:54.413Z,15.15
2023-04-17T04:03:57.341Z,16.00
2023-04-17T04:06:00.061Z,14.88
2023-04-17T04:08:02.745Z,14.73
2023-04-17T04:10:08.036Z,15.32
2023-04-17T04:12:11.345Z,14.07
2023-04-17T04:14:13.918Z,15.60
2023-04-17T04:16:16.754Z,15.45
2023-04-17T04:18:19.568Z,14.60
2023-04-17T04:20:23.046Z,14.07
2023-04-17T04:22:25.750Z,14.38
2023-04-17T04:24:28.605Z,14.48
2023-04-17T04:26:36.348Z,14.90
2023-04-17T04:28:42.590Z,13.95
2023-04-17T04:30:50.749Z,15.43
2023-04-17T04:32:55.908Z,15.00
2023-04-17T04:35:01.946Z,13.50
2023-04-17T04:37:04.768Z,13.70
2023-04-17T04:39:07.411Z,14.70
2023-04-17T04:41:10.573Z,14.10
2023-04-17T04:43:14.572Z,14.45
2023-04-17T04:45:18.661Z,15.20
2023-04-17T04:47:22.736Z,13.90
2023-04-17T04:49:25.660Z,13.50
2023-04-17T04:51:28.333Z,13.30
2023-04-17T04:53:31.529Z,14.40
2023-04-17T04:55:34.317Z,13.68
2023-04-17T04:57:37.342Z,14.52
2023-04-17T04:59:41.310Z,15.07
2023-04-17T05:01:44.689Z,14.63
2023-04-17T05:03:47.999Z,12.57
2023-04-17T05:05:51.377Z,14.52
2023-04-17T05:07:54.965Z,14.18
2023-04-17T05:09:57.675Z,15.13
2023-04-17T05:12:00.386Z,13.82
2023-04-17T05:14:03.004Z,14.18
2023-04-17T05:16:07.564Z,14.05
2023-04-17T05:18:10.433Z,14.27
2023-04-17T05:20:14.944Z,14.30
2023-04-17T05:22:17.563Z,13.63
2023-04-17T05:24:20.414Z,16.65
2023-04-17T05:26:23.367Z,14.82
2023-04-17T05:28:27.281Z,15.35
2023-04-17T05:30:30.293Z,16.15
2023-04-17T05:32:35.055Z,15.15
2023-04-17T05:34:37.813Z,15.20
2023-04-17T05:36:40.494Z,14.20
2023-04-17T05:38:45.942Z,14.30
2023-04-17T05:40:48.895Z,13.73
2023-04-17T05:42:51.773Z,13.90
2023-04-17T05:44:54.454Z,13.75
2023-04-17T05:47:00.052Z,14.60
2023-04-17T05:49:04.092Z,15.77
2023-04-17T05:51:07.002Z,14.52
2023-04-17T05:53:09.779Z,13.90
2023-04-17T05:55:12.486Z,13.65
2023-04-17T05:57:15.255Z,13.73
2023-04-17T05:59:17.949Z,14.23
2023-04-17T06:01:22.354Z,14.27
2023-04-17T06:03:25.858Z,13.48
2023-04-17T06:05:30.357Z,14.93
2023-04-17T06:07:33.848Z,13.45
2023-04-17T06:09:37.346Z,13.65
2023-04-17T06:11:40.104Z,13.68
2023-04-17T06:13:42.920Z,12.48
2023-04-17T06:15:45.813Z,13.23
2023-04-17T06:17:48.486Z,14.57
2023-04-17T06:19:51.151Z,14.02
2023-04-17T06:21:55.228Z,13.48
2023-04-17T06:23:57.882Z,14.30
2023-04-17T06:26:00.574Z,14.98
2023-04-17T06:28:03.756Z,14.23
2023-04-17T06:30:07.684Z,15.48
2023-04-17T06:32:10.667Z,15.50
2023-04-17T06:34:13.365Z,15.63
2023-04-17T06:36:16.294Z,15.35
2023-04-17T06:38:20.318Z,14.30
2023-04-17T06:40:22.990Z,13.98
2023-04-17T06:42:25.926Z,14.50
2023-04-17T06:44:28.674Z,13.45
2023-04-17T06:46:31.440Z,13.00
2023-04-17T06:48:34.147Z,12.98
2023-04-17T06:50:36.836Z,12.70
2023-04-17T06:52:39.524Z,13.30
2023-04-17T06:54:43.676Z,12.85
2023-04-17T06:56:46.384Z,12.93
2023-04-17T06:58:49.087Z,13.48
2023-04-17T07:00:51.753Z,13.65
2023-04-17T07:02:54.532Z,12.95
2023-04-17T07:04:57.470Z,13.07
2023-04-17T07:07:00.533Z,13.52
2023-04-17T07:09:03.381Z,14.68
2023-04-17T07:11:07.548Z,12.65
2023-04-17T07:13:10.246Z,15.13
2023-04-17T07:15:13.195Z,13.05
2023-04-17T07:17:15.952Z,13.35
2023-04-17T07:19:18.566Z,12.73
2023-04-17T07:21:21.174Z,13.85
2023-04-17T07:23:24.148Z,14.05
2023-04-17T07:25:27.050Z,13.10
2023-04-17T07:27:31.087Z,12.85
2023-04-17T07:29:33.986Z,12.20
2023-04-17T07:31:36.962Z,13.30
2023-04-17T07:33:40.597Z,13.00
2023-04-17T07:35:44.541Z,11.85
2023-04-17T07:37:47.213Z,13.00
2023-04-17T07:39:50.370Z,12.07
2023-04-17T07:41:53.048Z,11.77
2023-04-17T07:43:58.955Z,12.43
2023-04-17T07:46:02.011Z,11.13
2023-04-17T07:48:05.202Z,11.93
2023-04-17T07:50:09.056Z,12.60
2023-04-17T07:52:11.720Z,12.02
2023-04-17T07:54:14.430Z,11.10
2023-04-17T07:56:17.493Z,11.55
2023-04-17T07:58:20.303Z,11.40
2023-04-17T08:00:24.648Z,11.13
2023-04-17T08:02:27.575Z,11.07
2023-04-17T08:04:30.900Z,10.90
2023-04-17T08:06:33.776Z,11.35
2023-04-17T08:08:36.429Z,10.57
2023-04-17T08:10:39.129Z,10.52
2023-04-17T08:12:41.805Z,10.70
2023-04-17T08:14:44.618Z,11.85
2023-04-17T08:16:48.720Z,11.25
2023-04-17T08:18:51.492Z,11.02
2023-04-17T08:20:54.215Z,11.02
2023-04-17T08:22:57.322Z,11.35
2023-04-17T08:25:00.026Z,11.38
2023-04-17T08:27:03.507Z,10.77
2023-04-17T08:29:06.217Z,10.85
2023-04-17T08:31:10.393Z,10.63
2023-04-17T08:33:16.883Z,10.48
2023-04-17T08:35:20.228Z,10.52
2023-04-17T08:37:22.959Z,11.30
2023-04-17T08:39:27.159Z,10.60
2023-04-17T08:41:37.484Z,10.65
2023-04-17T08:43:42.314Z,11.27
2023-04-17T08:45:50.102Z,10.73
2023-04-17T08:47:53.010Z,10.85
2023-04-17T08:49:58.607Z,10.20
2023-04-17T08:52:03.085Z,10.43
2023-04-17T08:54:05.938Z,10.13
2023-04-17T08:56:09.343Z,9.93
2023-04-17T08:58:13.281Z,10.50
2023-04-17T09:00:25.393Z,10.18
2023-04-17T09:02:28.384Z,9.85
2023-04-17T09:04:39.316Z,9.25
2023-04-17T09:06:54.316Z,10.82
2023-04-17T09:08:58.927Z,10.48
2023-04-17T09:11:01.613Z,10.02
2023-04-17T09:13:04.869Z,10.70
2023-04-17T09:15:16.930Z,10.15
2023-04-17T09:17:21.341Z,10.13
2023-04-17T09:19:24.011Z,10.15
2023-04-17T09:21:28.955Z,8.13
2023-04-17T09:23:46.917Z,8.38
2023-04-17T09:26:07.454Z,8.75
2023-04-17T09:28:12.745Z,7.70
2023-04-17T09:30:15.701Z,7.57
2023-04-17T09:32:18.461Z,7.38
2023-04-17T09:34:21.889Z,7.90
2023-04-17T09:36:24.773Z,7.25
2023-04-17T09:38:40.040Z,7.05
2023-04-17T09:40:45.248Z,8.23
2023-04-17T09:42:58.697Z,8.10
2023-04-17T09:45:19.139Z,8.02
2023-04-17T09:47:23.597Z,7.45
2023-04-17T09:49:35.372Z,6.65
2023-04-17T09:51:38.734Z,7.00
2023-04-17T09:53:42.847Z,5.35
2023-04-17T09:55:46.052Z,5.53
2023-04-17T09:57:50.522Z,5.70
2023-04-17T09:59:57.396Z,5.80
2023-04-17T10:02:01.920Z,5.85
2023-04-17T10:04:06.825Z,5.57
2023-04-17T10:06:10.143Z,5.60
2023-04-17T10:08:12.872Z,5.50
2023-04-17T10:10:23.760Z,5.63
2023-04-17T10:12:26.701Z,6.07
2023-04-17T10:14:33.296Z,6.15
2023-04-17T10:16:37.068Z,6.15
2023-04-17T10:18:40.472Z,6.50
2023-04-17T10:20:44.956Z,6.03
2023-04-17T10:22:54.542Z,6.75
2023-04-17T10:25:19.785Z,6.57
2023-04-17T10:27:46.375Z,7.13
2023-04-17T10:29:59.306Z,7.00
2023-04-17T10:32:24.369Z,7.05
2023-04-17T10:34:44.845Z,6.80
2023-04-17T10:36:50.801Z,6.72
2023-04-17T10:38:53.426Z,7.72
2023-04-17T10:40:56.164Z,7.28
2023-04-17T10:43:13.399Z,7.40
2023-04-17T10:45:19.959Z,7.70
2023-04-17T10:47:23.160Z,7.50
2023-04-17T10:49:25.993Z,5.63
2023-04-17T10:51:42.687Z,6.18
2023-04-17T10:53:45.941Z,6.78
2023-04-17T10:55:51.365Z,6.78
2023-04-17T10:57:55.978Z,6.60
2023-04-17T11:00:13.719Z,6.50
2023-04-17T11:02:17.318Z,6.28
2023-04-17T11:04:21.808Z,6.43
2023-04-17T11:06:28.786Z,5.50
2023-04-17T11:08:31.618Z,5.70
2023-04-17T11:10:37.104Z,6.10
2023-04-17T11:12:39.826Z,5.47
2023-04-17T11:14:43.218Z,4.97
2023-04-17T11:16:49.036Z,5.15
2023-04-17T11:18:52.260Z,5.45
2023-04-17T11:20:54.964Z,4.80
2023-04-17T11:22:58.190Z,4.45
2023-04-17T11:25:00.994Z,4.82
2023-04-17T11:27:04.744Z,4.15
2023-04-17T11:29:14.970Z,4.75
2023-04-17T11:31:19.853Z,4.20
2023-04-17T11:33:25.199Z,4.28
2023-04-17T11:35:32.644Z,4.60
2023-04-17T11:37:35.431Z,3.80
2023-04-17T11:39:38.226Z,3.58
2023-04-17T11:41:42.517Z,4.05
2023-04-17T11:43:45.393Z,3.85
2023-04-17T11:45:52.576Z,3.95
2023-04-17T11:47:55.292Z,3.80
2023-04-17T11:49:59.480Z,3.95
2023-04-17T11:52:04.052Z,3.70
2023-04-17T11:54:06.799Z,3.50
2023-04-17T11:56:17.122Z,3.88
2023-04-17T11:58:19.739Z,3.95
2023-04-17T12:00:27.444Z,3.75
2023-04-17T12:02:34.416Z,3.85
2023-04-17T12:04:39.424Z,3.65
2023-04-17T12:06:43.871Z,3.58
2023-04-17T12:08:50.136Z,3.33
2023-04-17T12:10:52.881Z,3.50
2023-04-17T12:12:56.537Z,3.30
2023-04-17T12:15:00.970Z,3.40
2023-04-17T12:17:03.624Z,3.80
2023-04-17T12:19:07.979Z,3.67
2023-04-17T12:21:10.796Z,4.03
2023-04-17T12:23:14.791Z,3.67
2023-04-17T12:25:17.437Z,4.03
2023-04-17T12:27:20.085Z,4.18
2023-04-17T12:29:36.243Z,4.38
2023-04-17T12:31:45.976Z,4.65
2023-04-17T12:33:48.635Z,4.85
2023-04-17T12:35:51.415Z,5.35
2023-04-17T12:37:54.065Z,4.93
2023-04-17T12:39:59.612Z,4.50
2023-04-17T12:42:02.244Z,4.82
2023-04-17T12:44:05.106Z,4.97
2023-04-17T12:46:08.080Z,4.88
2023-04-17T12:48:11.016Z,4.95
2023-04-17T12:50:14.112Z,4.53
2023-04-17T12:52:16.810Z,5.28
2023-04-17T12:54:19.824Z,4.60
2023-04-17T12:56:24.126Z,4.75
2023-04-17T12:58:26.885Z,4.80
2023-04-17T13:00:29.605Z,4.85
2023-04-17T13:02:32.664Z,5.53
2023-04-17T13:04:35.762Z,5.32
2023-04-17T13:06:38.667Z,5.38
2023-04-17T13:08:41.383Z,5.60
2023-04-17T13:10:44.206Z,5.03
2023-04-17T13:12:48.500Z,5.03
2023-04-17T13:14:51.306Z,4.85
2023-04-17T13:16:54.087Z,5.85
2023-04-17T13:18:56.820Z,5.63
2023-04-17T13:20:59.593Z,5.60
2023-04-17T13:23:02.449Z,5.35
2023-04-17T13:25:05.888Z,5.22
2023-04-17T13:27:09.811Z,5.90
2023-04-17T13:29:15.620Z,5.47
2023-04-17T13:31:19.990Z,5.47
2023-04-17T13:33:22.661Z,5.70
2023-04-17T13:35:25.350Z,5.53
2023-04-17T13:37:28.145Z,5.30
2023-04-17T13:39:31.025Z,5.43
2023-04-17T13:41:33.726Z,4.82
2023-04-17T13:43:36.369Z,4.95
2023-04-17T13:45:40.460Z,4.97
2023-04-17T13:47:44.624Z,4.38
2023-04-17T13:49:47.389Z,4.15
2023-04-17T13:51:50.238Z,3.95
2023-04-17T13:53:52.921Z,4.03
2023-04-17T13:55:55.652Z,3.97
2023-04-17T13:57:58.594Z,4.22
2023-04-17T14:00:01.275Z,4.65
2023-04-17T14:02:05.562Z,4.20
2023-04-17T14:04:08.513Z,4.00
2023-04-17T14:06:11.464Z,4.47
2023-04-17T14:08:14.252Z,4.60
2023-04-17T14:10:16.875Z,4.63
2023-04-17T14:12:21.670Z,4.20
2023-04-17T14:14:24.545Z,4.47
2023-04-17T14:16:27.614Z,4.70
2023-04-17T14:18:32.324Z,4.25
2023-04-17T14:20:34.967Z,4.82
2023-04-17T14:22:37.758Z,3.80
2023-04-17T14:24:40.472Z,4.60
2023-04-17T14:26:43.174Z,4.43
2023-04-17T14:28:45.842Z,3.97
2023-04-17T14:30:48.535Z,3.92
2023-04-17T14:32:53.366Z,4.05
2023-04-17T14:34:57.524Z,4.45
2023-04-17T14:37:00.190Z,3.88
2023-04-17T14:39:02.933Z,4.03
2023-04-17T14:41:05.842Z,4.57
2023-04-17T14:43:08.611Z,4.35
2023-04-17T14:45:12.535Z,4.18
2023-04-17T14:47:15.355Z,3.60
2023-04-17T14:49:18.046Z,3.92
2023-04-17T14:51:22.325Z,4.28
2023-04-17T14:53:25.045Z,3.80
2023-04-17T14:55:27.980Z,4.07
2023-04-17T14:57:30.709Z,3.67
2023-04-17T14:59:33.560Z,3.70
2023-04-17T15:01:36.548Z,3.78
2023-04-17T15:03:39.650Z,3.75
2023-04-17T15:05:42.547Z,3.67
2023-04-17T15:07:46.541Z,3.67
2023-04-17T15:09:49.238Z,3.70
2023-04-17T15:11:52.032Z,3.47
2023-04-17T15:13:54.775Z,3.58
2023-04-17T15:15:57.498Z,3.75
2023-04-17T15:18:00.327Z,3.60
2023-04-17T15:20:04.101Z,3.72
2023-04-17T15:22:06.774Z,4.18
2023-04-17T15:24:10.925Z,3.05
2023-04-17T15:26:14.082Z,3.15
2023-04-17T15:28:16.769Z,3.28
2023-04-17T15:30:19.502Z,3.53
2023-04-17T15:32:22.242Z,3.10
2023-04-17T15:34:25.053Z,3.13
2023-04-17T15:36:31.272Z,3.13
2023-04-17T15:38:34.038Z,3.30
2023-04-17T15:40:38.132Z,3.92
2023-04-17T15:42:40.877Z,4.07
2023-04-17T15:44:43.486Z,3.90
2023-04-17T15:46:46.361Z,3.60
2023-04-17T15:49:01.233Z,3.40
2023-04-17T15:51:10.684Z,3.55
2023-04-17T15:53:13.463Z,3.42
2023-04-17T15:55:16.536Z,3.53
2023-04-17T15:57:20.549Z,3.85
2023-04-17T15:59:23.314Z,3.22
2023-04-17T16:01:26.443Z,3.72
2023-04-17T16:03:29.404Z,3.55
2023-04-17T16:05:32.225Z,2.88
2023-04-17T16:07:34.827Z,3.38
2023-04-17T16:09:37.534Z,3.05
2023-04-17T16:11:40.204Z,3.88
2023-04-17T16:13:44.256Z,4.05
2023-04-17T16:15:46.927Z,3.40
2023-04-17T16:17:49.681Z,3.22
2023-04-17T16:19:52.411Z,3.15
2023-04-17T16:21:56.636Z,3.70
2023-04-17T16:23:59.433Z,3.35
2023-04-17T16:26:02.053Z,2.92
2023-04-17T16:28:04.736Z,3.58
2023-04-17T16:30:10.690Z,3.25
2023-04-17T16:32:14.258Z,3.22
2023-04-17T16:34:17.217Z,3.30
2023-04-17T16:36:20.016Z,3.60
2023-04-17T16:38:22.673Z,3.15
2023-04-17T16:40:26.559Z,2.80
2023-04-17T16:42:29.159Z,3.22
2023-04-17T16:44:31.840Z,3.35
2023-04-17T16:46:52.109Z,3.38
2023-04-17T16:48:58.845Z,3.28
2023-04-17T16:51:05.797Z,3.00
2023-04-17T16:53:09.335Z,2.85
2023-04-17T16:55:12.077Z,2.97
2023-04-17T16:57:14.760Z,2.60
2023-04-17T16:59:17.561Z,3.35
2023-04-17T17:01:20.261Z,3.13
2023-04-17T17:03:24.420Z,3.03
2023-04-17T17:05:27.122Z,2.95
2023-04-17T17:07:29.802Z,2.80
2023-04-17T17:09:32.576Z,2.90
2023-04-17T17:11:35.297Z,3.00
2023-04-17T17:13:38.005Z,3.00
2023-04-17T17:15:40.679Z,3.10
2023-04-17T17:17:43.459Z,3.05
2023-04-17T17:19:47.559Z,3.50
2023-04-17T17:21:50.808Z,3.05
2023-04-17T17:23:53.468Z,3.22
2023-04-17T17:25:56.089Z,3.03
2023-04-17T17:27:58.998Z,3.10
2023-04-17T17:30:01.691Z,3.13
2023-04-17T17:32:04.888Z,3.33
2023-04-17T17:34:22.646Z,3.08
2023-04-17T17:36:31.313Z,3.25
2023-04-17T17:38:34.012Z,2.85
2023-04-17T17:40:36.744Z,2.83
2023-04-17T17:42:39.349Z,2.95
2023-04-17T17:44:41.978Z,2.92
2023-04-17T17:46:44.768Z,3.60
2023-04-17T17:48:47.630Z,2.72
2023-04-17T17:50:54.225Z,2.83
2023-04-17T17:52:59.007Z,2.78
2023-04-17T17:55:01.984Z,2.60
2023-04-17T17:57:05.330Z,3.08
2023-04-17T17:59:08.062Z,2.63
2023-04-17T18:01:11.050Z,2.45
2023-04-17T18:03:15.735Z,2.35
2023-04-17T18:05:19.023Z,2.63
2023-04-17T18:07:21.740Z,2.75
2023-04-17T18:09:25.822Z,2.35
2023-04-17T18:11:28.645Z,2.70
2023-04-17T18:13:31.288Z,2.60
2023-04-17T18:15:34.055Z,2.50
2023-04-17T18:17:36.824Z,2.35
2023-04-17T18:19:41.620Z,2.53
2023-04-17T18:21:47.245Z,2.08
2023-04-17T18:23:50.353Z,2.40
2023-04-17T18:26:02.088Z,2.50
2023-04-17T18:28:04.859Z,2.60
2023-04-17T18:30:09.735Z,2.25
2023-04-17T18:32:12.476Z,2.00
2023-04-17T18:34:15.379Z,2.00
2023-04-17T18:36:18.204Z,2.00
2023-04-17T18:38:20.853Z,2.05
2023-04-17T18:40:23.502Z,1.90
2023-04-17T18:42:27.432Z,2.22
2023-04-17T18:44:30.060Z,2.25
2023-04-17T18:46:32.763Z,2.30
2023-04-17T18:48:35.529Z,2.30
2023-04-17T18:50:38.393Z,2.08
2023-04-17T18:52:44.043Z,2.13
2023-04-17T18:54:49.584Z,2.63
2023-04-17T18:56:52.228Z,2.25
2023-04-17T18:58:56.218Z,2.17
2023-04-17T19:00:59.016Z,2.33
2023-04-17T19:03:01.799Z,1.95
2023-04-17T19:05:05.697Z,2.20
2023-04-17T19:07:08.414Z,2.25
2023-04-17T19:09:11.549Z,2.00
2023-04-17T19:11:14.248Z,1.98
2023-04-17T19:13:16.908Z,2.00
2023-04-17T19:15:21.381Z,1.80
2023-04-17T19:17:25.249Z,1.90
2023-04-17T19:19:28.057Z,1.90
2023-04-17T19:21:31.711Z,1.90
2023-04-17T19:23:34.422Z,2.00
2023-04-17T19:25:38.394Z,1.98
2023-04-17T19:27:41.037Z,2.40
2023-04-17T19:29:43.822Z,2.25
2023-04-17T19:31:47.913Z,2.28
2023-04-17T19:33:50.564Z,2.30
2023-04-17T19:35:53.330Z,2.20
2023-04-17T19:37:55.978Z,2.60
2023-04-17T19:39:58.683Z,2.75
2023-04-17T19:42:02.253Z,2.38
2023-04-17T19:44:05.124Z,2.10
2023-04-17T19:46:08.652Z,2.50
2023-04-17T19:48:12.832Z,2.90
2023-04-17T19:50:15.673Z,2.75
2023-04-17T19:52:18.479Z,3.20
2023-04-17T19:54:21.196Z,2.40
2023-04-17T19:56:24.112Z,2.53
2023-04-17T19:58:26.885Z,2.88
2023-04-17T20:00:29.548Z,2.90
2023-04-17T20:02:32.464Z,2.83
2023-04-17T20:04:36.587Z,3.10
2023-04-17T20:06:39.578Z,3.30
2023-04-17T20:08:42.316Z,3.10
2023-04-17T20:10:44.972Z,2.95
2023-04-17T20:12:47.653Z,3.20
2023-04-17T20:14:52.530Z,3.85
2023-04-17T20:16:56.182Z,3.42
2023-04-17T20:18:58.884Z,3.17
2023-04-17T20:21:02.962Z,4.05
2023-04-17T20:23:06.097Z,3.60
2023-04-17T20:25:09.698Z,3.50
2023-04-17T20:27:12.319Z,3.70
2023-04-17T20:29:15.209Z,3.63
2023-04-17T20:31:18.278Z,3.30
2023-04-17T20:33:20.936Z,3.55
2023-04-17T20:35:24.694Z,3.97
2023-04-17T20:37:28.822Z,3.92
2023-04-17T20:39:32.052Z,4.03
2023-04-17T20:41:34.802Z,4.32
2023-04-17T20:43:37.512Z,4.20
2023-04-17T20:45:40.498Z,4.38
2023-04-17T20:47:55.975Z,3.95
2023-04-17T20:49:59.713Z,4.22
2023-04-17T20:52:02.983Z,5.18
2023-04-17T20:54:07.094Z,4.95
2023-04-17T20:56:09.809Z,4.50
2023-04-17T20:58:12.488Z,5.00
2023-04-17T21:00:15.824Z,4.65
2023-04-17T21:02:18.711Z,4.65
2023-04-17T21:04:21.865Z,5.20
2023-04-17T21:06:24.587Z,5.53
2023-04-17T21:08:27.464Z,5.13
2023-04-17T21:10:31.497Z,5.13
2023-04-17T21:12:35.191Z,5.30
2023-04-17T21:14:38.068Z,5.43
2023-04-17T21:16:41.631Z,5.07
2023-04-17T21:18:44.307Z,5.28
2023-04-17T21:20:46.974Z,5.85
2023-04-17T21:22:49.778Z,6.32
2023-04-17T21:24:52.410Z,5.60
2023-04-17T21:26:58.594Z,5.65
2023-04-17T21:29:01.222Z,5.53
2023-04-17T21:31:08.345Z,6.20
2023-04-17T21:33:11.136Z,6.57
2023-04-17T21:35:13.758Z,6.70
2023-04-17T21:37:16.344Z,6.70
2023-04-17T21:39:19.125Z,6.57
2023-04-17T21:41:22.023Z,7.38
2023-04-17T21:43:26.046Z,7.50
2023-04-17T21:45:28.774Z,7.00
2023-04-17T21:47:31.421Z,7.28
2023-04-17T21:49:34.172Z,7.70
2023-04-17T21:51:36.802Z,8.00
2023-04-17T21:53:39.510Z,7.18
2023-04-17T21:55:42.347Z,7.53
2023-04-17T21:57:45.934Z,7.82
2023-04-17T21:59:49.937Z,8.52
2023-04-17T22:01:52.596Z,8.68
2023-04-17T22:03:55.583Z,8.57
2023-04-17T22:05:58.737Z,10.10
2023-04-17T22:08:02.171Z,7.68
2023-04-17T22:10:05.422Z,9.05
2023-04-17T22:12:12.409Z,9.27
2023-04-17T22:14:16.898Z,7.68
2023-04-17T22:16:21.049Z,9.43
2023-04-17T22:18:23.745Z,8.98
2023-04-17T22:20:26.623Z,8.20
2023-04-17T22:22:29.252Z,9.73
2023-04-17T22:24:31.849Z,9.52
2023-04-17T22:26:34.588Z,9.25
2023-04-17T22:28:37.378Z,8.55
2023-04-17T22:30:40.076Z,8.82
2023-04-17T22:32:44.282Z,8.93
2023-04-17T22:34:48.643Z,9.43
2023-04-17T22:36:51.389Z,9.27
2023-04-17T22:38:54.184Z,9.65
2023-04-17T22:40:56.823Z,10.07
2023-04-17T22:42:59.485Z,8.82
2023-04-17T22:45:02.275Z,9.52
2023-04-17T22:47:05.070Z,10.25
2023-04-17T22:49:09.626Z,10.23
2023-04-17T22:51:12.531Z,9.65
2023-04-17T22:53:15.223Z,9.50
2023-04-17T22:55:18.094Z,9.52
2023-04-17T22:57:20.993Z,10.38
2023-04-17T22:59:23.880Z,9.77
2023-04-17T23:01:26.760Z,9.40
2023-04-17T23:03:29.924Z,9.75
2023-04-17T23:05:34.049Z,9.88
2023-04-17T23:07:37.040Z,9.55
2023-04-17T23:09:39.678Z,9.82
2023-04-17T23:11:42.474Z,10.10
2023-04-17T23:13:45.401Z,10.27
2023-04-17T23:15:48.236Z,9.93
2023-04-17T23:17:50.990Z,10.63
2023-04-17T23:19:54.405Z,10.48
2023-04-17T23:21:59.466Z,9.52
2023-04-17T23:24:02.488Z,9.38
2023-04-17T23:26:05.288Z,10.05
2023-04-17T23:28:07.950Z,9.90
2023-04-17T23:30:11.464Z,9.55
2023-04-17T23:32:14.143Z,9.77
2023-04-17T23:34:16.882Z,10.02
2023-04-17T23:36:19.630Z,10.20
2023-04-17T23:38:23.676Z,9.65
2023-04-17T23:40:28.045Z,9.80
2023-04-17T23:42:30.822Z,10.07
2023-04-17T23:44:33.536Z,9.45
2023-04-17T23:46:36.344Z,10.27
2023-04-17T23:48:39.113Z,9.40
2023-04-17T23:50:42.942Z,9.57
2023-04-17T23:52:46.194Z,10.10
2023-04-17T23:54:50.181Z,9.20
2023-04-17T23:56:53.537Z,10.15
2023-04-17T23:58:56.308Z,8.77
